Time;durP1;ratioP1;P1;durP2;ratioP2;P2;SDS_P1;SDS_P2;PMS_P1;PMS_P2;Temp;Humidity;BMP_temperature;BMP_pressure;BME280_temperature;BME280_humidity;BME280_pressure;Samples;Min_cycle;Max_cycle;Signal;HPM_P1;HPM_P2
2022/12/09 00:04:20;;;;;;;14.18;13.07;;;;;;;1.94;100.00;99074.06;10461988;28;20075;-71
2022/12/09 00:09:22;;;;;;;14.27;13.18;;;;;;;1.92;100.00;99071.50;10444248;28;20056;-71
2022/12/09 00:14:24;;;;;;;14.25;12.85;;;;;;;1.91;100.00;99067.19;10461503;28;20048;-70
2022/12/09 00:19:26;;;;;;;16.20;14.93;;;;;;;2.18;100.00;99067.72;10460543;28;20059;-71
2022/12/09 00:24:28;;;;;;;17.15;15.80;;;;;;;2.10;100.00;99077.31;10462301;28;20064;-71
2022/12/09 00:29:30;;;;;;;15.82;14.57;;;;;;;2.01;100.00;99071.38;10461035;28;20037;-70
2022/12/09 00:34:32;;;;;;;15.65;14.50;;;;;;;2.08;100.00;99073.88;10461876;28;20107;-70
2022/12/09 00:39:33;;;;;;;15.75;14.55;;;;;;;1.98;100.00;99066.22;10460553;28;20044;-71
2022/12/09 00:44:35;;;;;;;16.02;14.82;;;;;;;1.91;100.00;99061.16;10461844;28;20033;-71
2022/12/09 00:49:37;;;;;;;17.20;15.85;;;;;;;1.90;100.00;99068.03;10460868;28;20119;-71
2022/12/09 00:54:39;;;;;;;15.43;14.23;;;;;;;1.84;100.00;99073.31;10460536;28;20037;-71
2022/12/09 01:00:34;;;;;;;17.58;16.17;;;;;;;1.84;100.00;99065.53;10460944;28;20080;-70
2022/12/09 01:05:37;;;;;;;17.13;15.82;;;;;;;2.09;100.00;99075.63;10442523;28;20072;-71
2022/12/09 01:10:40;;;;;;;16.17;14.88;;;;;;;2.10;100.00;99077.31;10426783;28;20121;-71
2022/12/09 01:15:43;;;;;;;17.58;16.17;;;;;;;2.06;100.00;99081.69;10461843;28;20059;-72
2022/12/09 01:20:55;;;;;;;16.50;15.20;;;;;;;2.00;100.00;99080.03;10461519;28;20045;-70
2022/12/09 01:25:57;;;;;;;17.80;16.17;;;;;;;1.94;100.00;99082.69;10459893;28;20449;-71
2022/12/09 01:31:16;;;;;;;16.63;15.20;;;;;;;2.08;100.00;99090.31;10459745;28;20051;-70
2022/12/09 01:36:21;;;;;;;17.00;15.70;;;;;;;2.00;100.00;99087.81;10459229;28;20490;-71
2022/12/09 01:41:23;;;;;;;18.33;16.67;;;;;;;1.88;100.00;99087.09;10458920;28;20402;-71
2022/12/09 01:46:25;;;;;;;18.92;17.42;;;;;;;1.81;100.00;99080.25;10459135;28;20451;-70
2022/12/09 01:51:27;;;;;;;17.27;15.98;;;;;;;1.81;100.00;99088.88;10443037;28;20040;-70
2022/12/09 01:56:33;;;;;;;18.42;17.02;;;;;;;1.78;100.00;99088.94;10512963;22;20139;-73
2022/12/09 02:01:37;;;;;;;17.63;16.13;;;;;;;1.89;100.00;99081.88;10488976;28;20072;-72
2022/12/09 02:06:39;;;;;;;20.80;19.10;;;;;;;1.75;100.00;99078.59;10489155;28;20448;-72
2022/12/09 02:12:07;;;;;;;19.95;18.25;;;;;;;1.79;100.00;99082.03;10487549;28;20048;-73
2022/12/09 02:17:27;;;;;;;21.17;19.33;;;;;;;1.72;100.00;99079.47;10487356;28;20052;-73
2022/12/09 02:22:39;;;;;;;20.55;18.77;;;;;;;1.75;100.00;99069.09;10487043;28;20056;-72
2022/12/09 02:27:57;;;;;;;20.17;18.60;;;;;;;1.74;100.00;99063.94;10503715;28;20045;-73
2022/12/09 02:33:18;;;;;;;20.83;19.05;;;;;;;1.76;100.00;99063.03;10487261;28;20094;-72
2022/12/09 02:38:30;;;;;;;20.67;19.00;;;;;;;1.70;100.00;99052.75;10486411;28;20048;-72
2022/12/09 02:43:37;;;;;;;22.08;20.08;;;;;;;1.68;100.00;99061.41;10469656;28;20150;-72
2022/12/09 02:48:54;;;;;;;21.77;19.88;;;;;;;1.62;100.00;99059.75;10485700;28;20055;-73
2022/12/09 02:54:02;;;;;;;21.48;19.65;;;;;;;1.60;100.00;99061.50;10503791;28;20511;-72
2022/12/09 02:59:08;;;;;;;22.00;20.08;;;;;;;1.69;100.00;99047.59;10485299;28;20523;-72
2022/12/09 03:04:20;;;;;;;20.85;19.20;;;;;;;1.82;100.00;99050.91;10503375;28;20087;-72
2022/12/09 03:09:32;;;;;;;20.73;19.13;;;;;;;1.67;100.00;99049.34;10484848;28;20049;-72
2022/12/09 03:14:40;;;;;;;21.90;19.90;;;;;;;1.60;100.00;99042.53;10503339;28;20039;-73
2022/12/09 03:20:03;;;;;;;20.83;19.02;;;;;;;1.97;100.00;99048.09;10502866;28;20047;-73
2022/12/09 03:25:25;;;;;;;18.95;17.45;;;;;;;1.80;100.00;99043.13;10503073;28;20047;-73
2022/12/09 03:30:35;;;;;;;19.45;17.88;;;;;;;1.63;100.00;99048.50;10504736;28;20040;-73
2022/12/09 03:35:45;;;;;;;20.43;18.77;;;;;;;1.60;100.00;99045.97;10484154;28;20067;-73
2022/12/09 03:40:52;;;;;;;20.25;18.45;;;;;;;1.66;100.00;99050.22;10502408;28;20391;-72
2022/12/09 03:45:56;;;;;;;18.75;17.25;;;;;;;1.63;100.00;99045.06;10483738;28;20071;-72
2022/12/09 03:51:14;;;;;;;22.10;20.27;;;;;;;1.62;100.00;99045.94;10483943;28;20041;-73
2022/12/09 03:56:44;;;;;;;21.48;19.77;;;;;;;1.62;100.00;99041.63;10501107;28;20059;-73
2022/12/09 04:01:46;;;;;;;21.05;19.15;;;;;;;1.61;100.00;99036.47;10480129;28;20056;-72
2022/12/09 04:06:50;;;;;;;21.00;18.92;;;;;;;1.74;100.00;99038.03;10500761;28;20041;-75
2022/12/09 04:11:52;;;;;;;21.60;19.90;;;;;;;1.83;100.00;99029.28;10501239;28;20426;-72
2022/12/09 04:16:53;;;;;;;20.85;19.13;;;;;;;1.73;100.00;99032.00;10499997;28;20041;-73
2022/12/09 04:21:55;;;;;;;21.83;20.02;;;;;;;1.81;100.00;99016.34;10503974;28;20089;-72
2022/12/09 04:26:57;;;;;;;20.77;19.02;;;;;;;1.77;100.00;99030.19;10505851;28;20123;-73
2022/12/09 04:31:59;;;;;;;21.70;19.80;;;;;;;1.76;100.00;99023.31;10505929;28;20131;-73
2022/12/09 04:37:01;;;;;;;22.27;20.48;;;;;;;1.62;100.00;99010.53;10504749;28;20036;-72
2022/12/09 04:42:03;;;;;;;21.55;19.50;;;;;;;1.71;100.00;99013.00;10502958;28;20044;-73
2022/12/09 04:47:05;;;;;;;19.38;17.77;;;;;;;1.66;100.00;99013.94;10484100;28;20036;-72
2022/12/09 04:52:07;;;;;;;21.88;20.10;;;;;;;1.59;100.00;99022.66;10482082;28;20503;-72
2022/12/09 04:57:10;;;;;;;22.13;19.92;;;;;;;1.60;100.00;99024.41;10500230;28;20045;-73
2022/12/09 05:02:13;;;;;;;22.92;20.77;;;;;;;1.68;100.00;99032.91;10508110;28;20040;-72
2022/12/09 05:07:15;;;;;;;22.75;20.52;;;;;;;1.57;100.00;99032.19;10514347;28;20043;-72
2022/12/09 05:12:17;;;;;;;23.83;21.38;;;;;;;1.57;100.00;99037.38;10505786;28;20075;-73
2022/12/09 05:17:19;;;;;;;23.35;20.95;;;;;;;1.52;100.00;99034.84;10485548;28;20128;-73
2022/12/09 05:22:22;;;;;;;23.02;20.85;;;;;;;1.60;100.00;99032.16;10502803;28;20062;-73
2022/12/09 05:27:24;;;;;;;21.25;19.35;;;;;;;1.60;100.00;99029.56;10506017;28;20036;-72
2022/12/09 05:32:29;;;;;;;20.60;18.88;;;;;;;1.60;100.00;99029.56;10508860;28;20110;-73
2022/12/09 05:37:32;;;;;;;19.15;17.52;;;;;;;1.58;100.00;99031.31;10509481;28;20112;-73
2022/12/09 05:42:34;;;;;;;20.85;19.05;;;;;;;1.59;100.00;99027.84;10493131;28;20049;-73
2022/12/09 05:47:42;;;;;;;23.63;19.63;;;;;;;1.56;100.00;99026.16;10493619;28;20139;-72
2022/12/09 05:52:45;;;;;;;25.73;23.23;;;;;;;1.70;100.00;99020.81;10510563;28;20410;-72
2022/12/09 05:57:47;;;;;;;25.77;22.85;;;;;;;1.52;100.00;99016.72;10492886;28;20049;-72
2022/12/09 06:02:49;;;;;;;23.85;21.73;;;;;;;1.58;100.00;99021.81;10493836;28;20048;-71
2022/12/09 06:07:51;;;;;;;24.35;22.10;;;;;;;1.63;100.00;99019.16;10492881;28;20430;-73
2022/12/09 06:12:54;;;;;;;21.27;19.48;;;;;;;1.66;100.00;99008.78;10489894;28;20049;-74
2022/12/09 06:17:55;;;;;;;23.33;21.13;;;;;;;1.69;100.00;99008.75;10505660;28;20047;-74
2022/12/09 06:22:58;;;;;;;22.08;19.83;;;;;;;1.64;100.00;99003.63;10505564;28;20047;-73
2022/12/09 06:28:00;;;;;;;25.25;22.65;;;;;;;1.58;100.00;99016.63;10505105;28;20127;-74
2022/12/09 06:33:02;;;;;;;23.33;21.13;;;;;;;1.52;100.00;99014.97;10506303;28;20410;-74
2022/12/09 06:38:24;;;;;;;25.92;23.17;;;;;;;1.65;100.00;99025.19;10487243;28;20417;-74
2022/12/09 06:43:26;;;;;;;23.85;21.65;;;;;;;1.73;100.00;99020.78;10506502;28;20048;-74
2022/12/09 06:48:28;;;;;;;22.67;20.55;;;;;;;1.61;100.00;99024.38;10488512;28;20044;-74
2022/12/09 06:53:33;;;;;;;23.48;21.48;;;;;;;1.60;100.00;99019.22;10505433;28;20533;-73
2022/12/09 06:58:36;;;;;;;21.70;19.55;;;;;;;1.62;100.00;99023.47;10505899;28;20051;-74
2022/12/09 07:03:39;;;;;;;20.80;18.80;;;;;;;1.66;100.00;99019.13;10504120;28;20048;-74
2022/12/09 07:08:41;;;;;;;20.15;18.42;;;;;;;1.76;100.00;99018.97;10503762;28;20048;-74
2022/12/09 07:13:43;;;;;;;20.33;18.40;;;;;;;1.63;100.00;99025.19;10503654;28;20035;-73
2022/12/09 07:18:45;;;;;;;18.90;17.27;;;;;;;1.61;100.00;99028.69;10485234;28;20048;-73
2022/12/09 07:23:47;;;;;;;22.15;19.90;;;;;;;1.55;100.00;99028.75;10468529;28;20079;-73
2022/12/09 07:28:50;;;;;;;20.95;18.95;;;;;;;1.61;100.00;99023.50;10484748;28;20154;-73
2022/12/09 07:33:54;;;;;;;22.92;20.35;;;;;;;1.64;100.00;99034.69;10502633;28;20090;-73
2022/12/09 07:39:02;;;;;;;19.20;17.40;;;;;;;1.96;100.00;99029.09;10485304;28;20394;-71
2022/12/09 07:44:03;;;;;;;18.95;17.15;;;;;;;1.87;100.00;99025.78;10503553;28;20049;-72
2022/12/09 07:49:08;;;;;;;19.63;17.98;;;;;;;1.84;100.00;99025.81;10502101;28;20049;-71
2022/12/09 07:54:15;;;;;;;21.70;19.45;;;;;;;1.87;100.00;99030.97;10505014;22;20132;-73
2022/12/09 07:59:17;;;;;;;21.50;18.73;;;;;;;2.08;100.00;99029.81;10500440;28;20116;-73
2022/12/09 08:04:19;;;;;;;19.17;17.48;;;;;;;2.08;100.00;99040.19;10482775;28;20067;-74
2022/12/09 08:09:21;;;;;;;19.25;17.45;;;;;;;2.30;100.00;99031.22;10484238;28;20128;-74
2022/12/09 08:14:23;;;;;;;19.50;17.38;;;;;;;2.52;100.00;99029.16;10484478;28;20387;-73
2022/12/09 08:19:25;;;;;;;21.30;19.25;;;;;;;2.46;100.00;99037.06;10466239;28;20390;-74
2022/12/09 08:24:27;;;;;;;22.95;18.80;;;;;;;2.44;100.00;99044.00;10501221;28;20039;-73
2022/12/09 08:29:30;;;;;;;17.98;16.40;;;;;;;2.70;100.00;99035.81;10482811;28;20036;-73
2022/12/09 08:34:31;;;;;;;19.02;17.40;;;;;;;2.49;100.00;99037.88;10468256;28;20052;-73
2022/12/09 08:39:33;;;;;;;19.30;17.35;;;;;;;2.61;100.00;99039.44;10499453;28;20048;-72
2022/12/09 08:44:37;;;;;;;21.75;17.65;;;;;;;2.88;100.00;99038.13;10500161;28;20033;-73
2022/12/09 08:49:39;;;;;;;19.15;17.25;;;;;;;2.73;100.00;99034.03;10482818;28;20051;-72
2022/12/09 08:54:41;;;;;;;20.85;18.95;;;;;;;3.02;100.00;99035.28;10485077;28;20075;-72
2022/12/09 08:59:43;;;;;;;20.10;18.23;;;;;;;3.02;100.00;99035.28;10481684;28;20055;-73
2022/12/09 09:04:46;;;;;;;23.38;21.10;;;;;;;2.80;100.00;99026.16;10482118;28;20051;-74
2022/12/09 09:09:49;;;;;;;21.90;19.67;;;;;;;2.74;100.00;99021.91;10481524;28;20040;-74
2022/12/09 09:14:53;;;;;;;23.45;20.15;;;;;;;2.92;98.96;99013.84;10483497;28;20112;-73
2022/12/09 09:19:55;;;;;;;21.67;19.27;;;;;;;2.99;97.86;99007.63;10498470;28;20040;-73
2022/12/09 09:24:57;;;;;;;23.80;20.27;;;;;;;2.68;98.97;99022.00;10480996;28;20048;-73
2022/12/09 09:29:59;;;;;;;24.00;21.40;;;;;;;2.77;98.68;99016.66;10464584;28;20148;-72
2022/12/09 09:35:01;;;;;;;22.15;19.10;;;;;;;2.63;100.00;99011.72;10497856;28;20166;-72
2022/12/09 09:40:04;;;;;;;22.90;20.40;;;;;;;2.53;100.00;99012.75;10501059;28;20167;-72
2022/12/09 09:45:14;;;;;;;23.70;20.17;;;;;;;2.82;95.62;99001.03;10480936;28;20141;-71
2022/12/09 09:50:31;;;;;;;21.58;19.45;;;;;;;2.84;96.14;98994.09;10480281;28;20413;-71
2022/12/09 09:55:41;;;;;;;25.92;20.13;;;;;;;2.76;96.95;98982.09;10498934;28;20115;-72
2022/12/09 10:00:54;;;;;;;24.13;21.05;;;;;;;2.57;98.42;98979.81;10482314;28;20484;-72
2022/12/09 10:06:04;;;;;;;21.83;19.73;;;;;;;2.73;95.51;98979.53;10498688;28;20508;-71
2022/12/09 10:11:16;;;;;;;21.25;19.25;;;;;;;2.69;93.67;98967.47;10481076;28;20174;-71
2022/12/09 10:16:25;;;;;;;22.00;19.42;;;;;;;2.65;93.93;98972.75;10504962;28;20037;-72
2022/12/09 10:21:30;;;;;;;22.55;20.33;;;;;;;2.84;92.80;98963.78;10508724;28;20055;-72
2022/12/09 10:26:33;;;;;;;21.37;19.23;;;;;;;2.88;93.26;98955.06;10487964;28;20101;-71
2022/12/09 10:31:36;;;;;;;21.42;19.42;;;;;;;3.03;90.46;98959.97;10487687;28;20123;-71
2022/12/09 10:36:42;;;;;;;22.98;20.20;;;;;;;2.98;90.45;98946.22;10503912;28;20120;-71
2022/12/09 10:47:25;;;;;;;23.80;21.23;;;;;;;3.04;90.26;98925.31;10503664;28;20107;-71
2022/12/09 10:52:36;;;;;;;27.13;21.95;;;;;;;3.28;87.48;98923.16;10485016;28;20044;-71
2022/12/09 10:57:38;;;;;;;24.27;21.52;;;;;;;3.24;88.20;98921.50;10502672;28;20044;-71
2022/12/09 11:02:49;;;;;;;21.58;19.50;;;;;;;3.48;84.50;98928.78;10503726;28;20048;-71
2022/12/09 11:07:52;;;;;;;20.30;18.23;;;;;;;3.69;81.96;98918.81;10504611;28;20048;-70
2022/12/09 11:13:04;;;;;;;22.23;19.92;;;;;;;3.92;81.31;98926.09;10503093;28;20040;-72
2022/12/09 11:18:17;;;;;;;22.67;20.33;;;;;;;4.46;77.87;98917.88;10502656;28;20033;-71
2022/12/09 11:23:20;;;;;;;20.98;19.08;;;;;;;3.83;78.04;98914.16;10501583;28;20041;-71
2022/12/09 11:28:31;;;;;;;22.10;20.02;;;;;;;3.87;78.88;98915.81;10486204;28;20512;-72
2022/12/09 11:33:40;;;;;;;21.60;19.00;;;;;;;4.19;79.71;98916.81;10502676;28;20083;-72
2022/12/09 11:38:45;;;;;;;21.52;19.52;;;;;;;4.26;75.64;98908.84;10501384;28;20040;-71
2022/12/09 11:43:48;;;;;;;22.23;20.13;;;;;;;4.67;74.78;98917.34;10501653;28;20045;-71
2022/12/09 11:48:56;;;;;;;22.52;20.42;;;;;;;4.69;74.96;98905.16;10502483;28;20436;-72
2022/12/09 11:54:03;;;;;;;;;;;;;;;4.24;72.79;98910.59;10501510;28;20048;-71
2022/12/09 11:59:19;;;;;;;;;;;;;;;4.24;75.59;98910.59;10502424;28;20447;-71
2022/12/09 12:04:35;;;;;;;22.10;19.45;;;;;;;4.58;72.42;98908.94;10501375;28;20282;-71
2022/12/09 12:09:56;;;;;;;20.80;18.80;;;;;;;4.36;73.52;98911.22;10483633;28;20052;-71
2022/12/09 12:15:09;;;;;;;20.95;18.83;;;;;;;3.94;73.46;98903.50;10482868;28;20514;-71
2022/12/09 12:20:12;;;;;;;24.42;19.77;;;;;;;3.60;75.90;98906.88;10499635;28;20041;-71
2022/12/09 12:25:32;;;;;;;25.00;19.63;;;;;;;3.61;75.46;98908.59;10499366;28;20432;-70
2022/12/09 12:30:46;;;;;;;35.78;20.23;;;;;;;3.48;76.41;98896.75;10499622;28;20398;-71
2022/12/09 12:36:10;;;;;;;23.65;19.38;;;;;;;3.37;76.34;98898.72;10501043;28;20047;-70
2022/12/09 12:41:43;;;;;;;21.60;17.35;;;;;;;3.31;75.83;98891.06;10481486;28;20045;-71
2022/12/09 12:47:15;;;;;;;18.17;16.52;;;;;;;3.26;74.29;98888.56;10498917;28;20068;-71
2022/12/09 12:52:58;;;;;;;19.15;17.38;;;;;;;3.15;75.89;98880.13;10480823;28;20072;-72
2022/12/09 12:58:14;;;;;;;19.80;18.02;;;;;;;3.15;75.30;98878.41;10476128;28;20525;-71
2022/12/09 13:03:24;;;;;;;18.27;16.52;;;;;;;3.03;75.70;98868.25;10499534;28;20041;-71
2022/12/09 13:08:38;;;;;;;23.38;18.38;;;;;;;2.87;76.78;98870.28;10498714;28;20045;-72
2022/12/09 13:13:50;;;;;;;21.33;19.25;;;;;;;3.00;76.15;98861.38;10498970;28;20044;-71
2022/12/09 13:18:52;;;;;;;20.40;18.33;;;;;;;2.64;78.72;98857.75;10500213;28;20059;-71
2022/12/09 13:24:25;;;;;;;75.70;38.33;;;;;;;2.64;78.67;98862.09;10498778;28;20048;-71
2022/12/09 13:29:42;;;;;;;24.00;21.35;;;;;;;2.52;80.29;98857.97;10498517;28;20036;-71
2022/12/09 13:34:54;;;;;;;46.60;31.10;;;;;;;2.43;80.86;98858.13;10499461;28;20048;-71
2022/12/09 13:39:57;;;;;;;21.98;19.52;;;;;;;2.47;80.53;98858.03;10499813;28;20048;-71
2022/12/09 13:45:22;;;;;;;20.33;18.42;;;;;;;2.54;80.36;98856.22;10499277;28;20041;-71
2022/12/09 13:50:56;;;;;;;21.58;19.55;;;;;;;2.46;81.22;98855.50;10495123;28;20068;-71
2022/12/09 13:56:05;;;;;;;24.08;19.90;;;;;;;2.50;80.72;98851.97;10498751;23;20400;-71
2022/12/09 14:01:14;;;;;;;21.58;19.27;;;;;;;2.56;81.13;98844.06;10525020;28;20044;-72
2022/12/09 14:06:45;;;;;;;23.15;20.70;;;;;;;2.56;81.61;98845.78;10549136;28;20048;-71
2022/12/09 14:11:55;;;;;;;23.08;20.17;;;;;;;2.37;82.04;98851.31;10548491;28;20089;-71
2022/12/09 14:16:59;;;;;;;24.33;21.20;;;;;;;2.42;82.26;98841.72;10548972;28;20036;-71
2022/12/09 14:22:17;;;;;;;22.20;19.67;;;;;;;2.36;83.91;98841.84;10512594;28;20052;-71
2022/12/09 14:27:26;;;;;;;24.25;20.80;;;;;;;2.32;84.47;98832.41;10550230;28;20032;-72
2022/12/09 14:32:36;;;;;;;23.90;21.45;;;;;;;2.24;86.07;98836.84;10549826;28;20044;-72
2022/12/09 14:37:50;;;;;;;23.60;21.10;;;;;;;2.33;85.60;98839.28;10548270;28;20044;-72
2022/12/09 14:43:25;;;;;;;21.73;19.83;;;;;;;2.69;85.55;98839.50;10531338;28;20118;-72
2022/12/09 14:48:34;;;;;;;21.88;19.73;;;;;;;2.69;86.27;98839.50;10338082;28;20110;-71
2022/12/09 14:53:37;;;;;;;26.30;21.58;;;;;;;2.50;86.34;98826.88;10339502;28;20101;-71
2022/12/09 14:58:39;;;;;;;24.45;21.85;;;;;;;2.55;87.10;98829.38;10336189;28;20125;-72
2022/12/09 15:03:50;;;;;;;20.48;18.75;;;;;;;2.51;89.81;98835.50;10336559;28;20058;-72
2022/12/09 15:08:57;;;;;;;22.13;18.95;;;;;;;2.45;91.10;98831.28;10336084;28;20078;-72
2022/12/09 15:19:28;;;;;;;23.55;21.13;;;;;;;2.48;91.99;98820.88;10336697;28;20117;-72
2022/12/09 15:24:50;;;;;;;;;;;;;;;2.41;91.55;98828.78;10495231;28;20056;-70
2022/12/09 15:29:52;;;;;;;23.70;21.45;;;;;;;2.41;92.29;98829.63;10545582;28;19920;-71
2022/12/09 15:34:54;;;;;;;22.00;19.92;;;;;;;2.34;93.72;98822.84;10545248;28;20068;-71
2022/12/09 15:40:07;;;;;;;22.42;20.15;;;;;;;2.19;94.08;98817.94;10546112;28;20058;-71
2022/12/09 15:45:18;;;;;;;22.50;20.58;;;;;;;2.22;94.29;98831.72;10546466;28;20488;-71
2022/12/09 15:50:27;;;;;;;22.00;20.15;;;;;;;2.01;95.25;98838.09;10545718;28;20385;-72
2022/12/09 15:55:36;;;;;;;26.92;21.25;;;;;;;1.93;96.57;98839.09;10526038;28;20040;-71
2022/12/09 16:00:47;;;;;;;22.40;20.30;;;;;;;2.08;95.23;98835.41;10543774;28;20044;-72
2022/12/09 16:05:59;;;;;;;22.90;21.10;;;;;;;2.06;94.78;98839.75;10526436;28;20036;-72
2022/12/09 16:11:02;;;;;;;23.63;21.52;;;;;;;1.78;97.65;98845.41;10543146;28;20465;-71
2022/12/09 16:16:31;;;;;;;24.00;21.90;;;;;;;1.80;97.36;98835.84;10543149;28;20115;-71
2022/12/09 16:21:35;;;;;;;24.83;21.73;;;;;;;1.82;97.28;98831.50;10543073;28;20044;-71
2022/12/09 16:26:43;;;;;;;24.83;22.02;;;;;;;1.74;98.28;98826.44;10542895;28;20040;-71
2022/12/09 16:31:44;;;;;;;24.55;22.23;;;;;;;1.83;97.52;98845.31;10543581;28;20515;-73
2022/12/09 16:36:55;;;;;;;24.10;21.90;;;;;;;1.90;97.36;98842.59;10525652;28;20044;-72
2022/12/09 16:41:59;;;;;;;25.17;22.90;;;;;;;1.82;97.88;98843.63;10543415;28;20044;-72
2022/12/09 16:47:11;;;;;;;23.83;21.48;;;;;;;2.02;95.68;98833.78;10541490;28;20119;-72
2022/12/09 16:52:19;;;;;;;25.67;22.92;;;;;;;1.77;97.92;98833.28;10523156;28;20048;-72
2022/12/09 16:57:21;;;;;;;26.38;23.60;;;;;;;1.66;99.21;98832.63;10542346;28;20042;-71
2022/12/09 17:02:38;;;;;;;30.77;24.67;;;;;;;1.82;97.63;98823.75;10542963;28;20067;-71
2022/12/09 17:07:39;;;;;;;;;;;;;;;1.87;97.96;98816.75;10524665;28;20048;-70
2022/12/09 17:12:43;;;;;;;27.73;24.75;;;;;;;2.07;97.17;98815.53;10524664;28;20424;-70
2022/12/09 17:17:46;;;;;;;28.00;25.05;;;;;;;2.08;97.68;98820.72;10540796;28;20040;-71
2022/12/09 17:22:49;;;;;;;30.17;25.70;;;;;;;2.01;97.57;98822.56;10545138;28;20048;-71
2022/12/09 17:27:51;;;;;;;28.92;25.33;;;;;;;1.95;98.11;98827.84;10551910;28;20401;-70
2022/12/09 17:32:54;;;;;;;36.10;27.75;;;;;;;1.83;99.76;98832.38;10551651;28;20040;-71
2022/12/09 17:37:55;;;;;;;30.67;27.25;;;;;;;1.83;99.94;98822.00;10534314;28;20051;-70
2022/12/09 17:42:57;;;;;;;29.42;26.42;;;;;;;2.00;98.51;98828.63;10551953;28;20068;-70
2022/12/09 17:47:59;;;;;;;27.77;25.05;;;;;;;2.16;96.77;98831.78;10551364;28;20047;-70
2022/12/09 17:53:01;;;;;;;41.65;29.65;;;;;;;2.01;98.19;98837.25;10550503;28;20118;-70
2022/12/09 17:58:03;;;;;;;29.45;26.27;;;;;;;2.01;98.91;98845.03;10551980;28;20043;-71
2022/12/09 18:03:06;;;;;;;33.05;26.73;;;;;;;1.98;98.58;98845.06;10532825;28;20050;-71
2022/12/09 18:08:08;;;;;;;30.67;24.13;;;;;;;1.99;97.18;98854.53;10551741;28;20044;-70
2022/12/09 18:13:10;;;;;;;24.27;22.13;;;;;;;1.87;95.99;98863.38;10532731;28;20074;-71
2022/12/09 18:18:12;;;;;;;26.77;24.15;;;;;;;1.86;97.41;98863.38;10531531;28;20052;-70
2022/12/09 18:23:15;;;;;;;25.85;23.30;;;;;;;1.83;96.90;98866.06;10530441;28;20101;-71
2022/12/09 18:28:17;;;;;;;26.70;23.92;;;;;;;1.84;96.49;98872.94;10548873;28;20050;-71
2022/12/09 18:33:18;;;;;;;23.40;21.30;;;;;;;1.84;95.98;98862.56;10528606;28;20044;-70
2022/12/09 18:38:20;;;;;;;25.27;22.70;;;;;;;1.73;95.52;98863.59;10548593;28;20043;-71
2022/12/09 18:43:22;;;;;;;24.17;22.08;;;;;;;1.77;95.91;98869.56;10548824;28;20085;-71
2022/12/09 18:48:24;;;;;;;23.15;20.88;;;;;;;1.71;95.59;98872.25;10549432;28;20044;-71
2022/12/09 18:53:26;;;;;;;24.30;21.13;;;;;;;1.79;94.79;98869.56;10548044;28;20128;-71
2022/12/09 18:58:29;;;;;;;22.67;20.48;;;;;;;1.79;95.07;98875.59;10529049;28;20054;-71
2022/12/09 19:03:53;;;;;;;23.17;21.08;;;;;;;1.76;93.93;98873.03;10548419;28;20119;-70
2022/12/09 19:08:57;;;;;;;21.60;19.65;;;;;;;1.91;91.90;98875.41;10547562;28;20151;-71
2022/12/09 19:14:00;;;;;;;23.42;21.08;;;;;;;1.82;92.75;98879.88;10548314;28;20044;-74
2022/12/09 19:19:02;;;;;;;22.27;19.98;;;;;;;1.80;92.24;98877.31;10547165;28;20438;-71
2022/12/09 19:24:16;;;;;;;21.77;19.85;;;;;;;1.93;91.41;98873.66;10527593;28;20048;-71
2022/12/09 19:29:19;;;;;;;22.23;20.35;;;;;;;1.81;92.46;98872.97;10528001;28;20043;-72
2022/12/09 19:34:27;;;;;;;22.90;20.73;;;;;;;1.66;93.01;98876.66;10546027;28;20092;-72
2022/12/09 19:39:30;;;;;;;21.15;19.40;;;;;;;1.79;91.71;98885.09;10544769;28;20086;-71
2022/12/09 19:44:32;;;;;;;23.35;20.75;;;;;;;1.65;93.04;98890.50;10527703;28;20069;-72
2022/12/09 19:49:54;;;;;;;23.05;20.95;;;;;;;1.56;92.15;98885.44;10546344;28;20443;-71
2022/12/09 19:54:56;;;;;;;22.60;20.35;;;;;;;1.61;91.75;98881.06;10529560;22;20040;-71
2022/12/09 19:59:57;;;;;;;23.70;21.23;;;;;;;1.74;91.88;98882.59;10502950;28;20036;-69
2022/12/09 20:04:59;;;;;;;22.77;20.77;;;;;;;1.56;92.51;98890.63;10502206;28;20040;-69
2022/12/09 20:10:01;;;;;;;22.67;20.48;;;;;;;1.57;92.66;98890.59;10502459;28;20403;-69
2022/12/09 20:15:06;;;;;;;20.88;18.85;;;;;;;1.50;91.97;98888.94;10500486;28;20055;-69
2022/12/09 20:20:09;;;;;;;22.10;19.88;;;;;;;1.53;92.54;98886.34;10500979;28;20047;-70
2022/12/09 20:25:11;;;;;;;23.67;21.48;;;;;;;1.44;93.70;98887.31;10501240;28;20454;-69
2022/12/09 20:30:13;;;;;;;24.63;22.02;;;;;;;1.63;92.86;98893.09;10499769;28;20041;-70
2022/12/09 20:35:15;;;;;;;23.13;20.90;;;;;;;1.61;92.82;98894.84;10501258;28;20439;-70
2022/12/09 20:40:17;;;;;;;25.88;21.88;;;;;;;1.46;94.48;98900.22;10482288;28;20045;-70
2022/12/09 20:45:19;;;;;;;29.23;24.58;;;;;;;1.56;93.79;98900.97;10499960;28;20494;-69
2022/12/09 20:50:20;;;;;;;31.65;24.15;;;;;;;1.62;94.62;98906.91;10496549;28;20095;-69
2022/12/09 20:55:22;;;;;;;27.25;24.33;;;;;;;1.67;93.64;98904.25;10478313;28;20037;-70
2022/12/09 21:00:24;;;;;;;33.45;25.60;;;;;;;1.71;94.55;98908.53;10474906;28;20091;-70
2022/12/09 21:05:26;;;;;;;38.45;26.90;;;;;;;1.77;94.21;98904.13;10465249;28;20123;-69
2022/12/09 21:10:27;;;;;;;39.65;27.58;;;;;;;1.42;96.23;98903.75;10499301;28;20059;-69
2022/12/09 21:15:29;;;;;;;38.22;27.75;;;;;;;1.54;94.72;98895.81;10461038;28;20168;-70
2022/12/09 21:20:31;;;;;;;50.90;29.17;;;;;;;1.34;96.48;98893.50;10494638;28;20044;-72
2022/12/09 21:25:33;;;;;;;50.65;29.27;;;;;;;1.46;96.17;98888.16;10460485;28;20470;-70
2022/12/09 21:30:36;;;;;;;40.38;29.27;;;;;;;1.54;95.00;98892.38;10497692;28;20060;-70
2022/12/09 21:35:44;;;;;;;42.25;28.33;;;;;;;1.42;95.62;98904.63;10499738;28;20091;-70
2022/12/09 21:40:45;;;;;;;49.65;31.42;;;;;;;1.40;95.76;98902.91;10480693;28;20469;-70
2022/12/09 21:45:47;;;;;;;51.72;31.23;;;;;;;1.48;95.32;98914.03;10481089;28;20059;-70
2022/12/09 21:50:54;;;;;;;55.63;31.98;;;;;;;1.38;96.25;98915.88;10486331;28;20114;-70
2022/12/09 21:56:14;;;;;;;51.47;30.40;;;;;;;1.38;97.28;98915.88;10495267;28;20041;-70
2022/12/09 22:01:22;;;;;;;53.88;32.55;;;;;;;1.33;97.39;98915.09;10469272;28;20456;-71
2022/12/09 22:06:24;;;;;;;55.40;31.45;;;;;;;1.49;97.20;98916.59;10499104;28;20043;-70
2022/12/09 22:11:28;;;;;;;65.70;34.58;;;;;;;1.31;97.89;98928.91;10505034;28;20409;-70
2022/12/09 22:16:33;;;;;;;70.03;34.95;;;;;;;1.36;98.44;98921.94;10504685;28;20040;-70
2022/12/09 22:21:35;;;;;;;73.90;35.15;;;;;;;1.24;99.68;98933.31;10487381;28;20075;-71
2022/12/09 22:26:38;;;;;;;77.38;37.40;;;;;;;1.09;100.00;98929.16;10487427;28;20047;-71
2022/12/09 22:31:41;;;;;;;79.38;38.13;;;;;;;1.27;100.00;98928.09;10504919;28;20068;-70
2022/12/09 22:36:43;;;;;;;85.93;40.65;;;;;;;1.21;100.00;98935.94;10504774;28;20044;-71
2022/12/09 22:41:45;;;;;;;80.75;38.83;;;;;;;1.07;100.00;98941.28;10505746;28;20044;-71
2022/12/09 22:46:47;;;;;;;80.85;39.38;;;;;;;1.17;100.00;98932.53;10505560;28;20045;-70
2022/12/09 22:51:49;;;;;;;81.50;39.60;;;;;;;1.12;100.00;98931.72;10505308;28;20068;-70
2022/12/09 22:56:51;;;;;;;87.93;39.80;;;;;;;1.06;100.00;98938.69;10504086;28;20203;-71
2022/12/09 23:01:53;;;;;;;77.63;38.60;;;;;;;1.23;100.00;98929.84;10485970;28;20047;-70
2022/12/09 23:06:55;;;;;;;72.60;37.60;;;;;;;1.06;100.00;98936.94;10503659;28;20052;-71
2022/12/09 23:11:57;;;;;;;82.97;40.95;;;;;;;1.15;100.00;98942.06;10503859;28;20037;-71
2022/12/09 23:16:58;;;;;;;85.32;41.30;;;;;;;1.12;100.00;98938.63;10503250;28;20063;-71
2022/12/09 23:22:00;;;;;;;79.90;38.60;;;;;;;1.26;100.00;98941.91;10484763;28;20510;-71
2022/12/09 23:27:03;;;;;;;77.43;40.10;;;;;;;1.14;100.00;98936.88;10484893;28;20098;-70
2022/12/09 23:32:05;;;;;;;76.95;39.22;;;;;;;1.13;100.00;98941.19;10502267;28;20124;-71
2022/12/09 23:37:06;;;;;;;82.65;40.50;;;;;;;1.14;99.79;98936.88;10502302;28;20041;-70